首页
METAR-TAF:

METAR-TAF

机场 :

上海浦东国际机场

上海 / 浦东, 中华人民共和国

纬度: 31-07N, 经度: 121-46E, 海拔: 4米

当前天气观测

该预报发布于18分钟前的05:00 UTC
风速14节,风向北转东北,在之间变化
温度 25°C
湿度 39%
气压 1010 hPa
能见度10公里或以上
1500米以下无云,无积雨云

METAR: ZSPD 280500Z 03007MPS 360V080 CAVOK 25/10 Q1010 NOSIG

时间: 13:18 (05:18 UTC)

预报

该预报发布于8小时和16分钟前的21:02 UTC
预报有效从28日的 00点(UTC)到 28日的 24点(UTC)
风速12节,风向北转东北
能見度: 6000
多云层高于1500英尺

TAF: ZSPD 272102Z 2800/2824 02006MPS 6000 BKN015 TX26/2806Z TN17/2821Z

超过4000个机场的气象观测和天气预报(METAR&TAF报告)。

可查询的气象台以黄色和红色小点在地图上表示。

将鼠标移到小点上方,可查看气象台名称。

然后点击查看天气观测和预报。

如需切换地图:点击带黑十字的绿色按钮放大地图;点击带横线的绿色按钮缩小地图;或者点击绿色箭头查看邻近地区的地图。


METAR-TAF: